sensor_id;sensor_type;location;lat;lon;timestamp;P1;durP1;ratioP1;P2;durP2;ratioP2
73136;SDS011;67767;45.636;11.756;2023-12-29T00:01:54;96.65;;;52.08;;
73136;SDS011;67767;45.636;11.756;2023-12-29T00:04:20;99.60;;;52.70;;
73136;SDS011;67767;45.636;11.756;2023-12-29T00:06:46;94.47;;;49.95;;
73136;SDS011;67767;45.636;11.756;2023-12-29T00:09:11;93.30;;;49.87;;
73136;SDS011;67767;45.636;11.756;2023-12-29T00:11:38;91.30;;;49.45;;
73136;SDS011;67767;45.636;11.756;2023-12-29T00:14:04;134.20;;;70.80;;
73136;SDS011;67767;45.636;11.756;2023-12-29T00:16:30;95.07;;;51.77;;
73136;SDS011;67767;45.636;11.756;2023-12-29T00:18:56;91.32;;;50.85;;
73136;SDS011;67767;45.636;11.756;2023-12-29T00:21:22;94.30;;;51.08;;
73136;SDS011;67767;45.636;11.756;2023-12-29T00:23:47;112.60;;;55.07;;
73136;SDS011;67767;45.636;11.756;2023-12-29T00:26:16;111.80;;;55.88;;
73136;SDS011;67767;45.636;11.756;2023-12-29T00:28:42;100.07;;;52.93;;
73136;SDS011;67767;45.636;11.756;2023-12-29T00:31:09;100.47;;;52.63;;
73136;SDS011;67767;45.636;11.756;2023-12-29T00:33:40;110.53;;;53.85;;
73136;SDS011;67767;45.636;11.756;2023-12-29T00:36:06;108.35;;;53.15;;
73136;SDS011;67767;45.636;11.756;2023-12-29T00:38:32;104.00;;;54.70;;
73136;SDS011;67767;45.636;11.756;2023-12-29T00:40:58;99.53;;;51.53;;
73136;SDS011;67767;45.636;11.756;2023-12-29T00:43:24;98.88;;;52.13;;
73136;SDS011;67767;45.636;11.756;2023-12-29T00:45:49;91.77;;;49.07;;
73136;SDS011;67767;45.636;11.756;2023-12-29T00:48:15;91.72;;;49.25;;
73136;SDS011;67767;45.636;11.756;2023-12-29T00:50:41;87.83;;;49.37;;
73136;SDS011;67767;45.636;11.756;2023-12-29T00:53:07;92.60;;;50.42;;
73136;SDS011;67767;45.636;11.756;2023-12-29T00:55:33;90.37;;;47.47;;
73136;SDS011;67767;45.636;11.756;2023-12-29T00:57:58;86.20;;;47.92;;
73136;SDS011;67767;45.636;11.756;2023-12-29T01:00:24;80.90;;;44.97;;
73136;SDS011;67767;45.636;11.756;2023-12-29T01:02:49;86.63;;;46.65;;
73136;SDS011;67767;45.636;11.756;2023-12-29T01:05:15;83.33;;;46.60;;
73136;SDS011;67767;45.636;11.756;2023-12-29T01:07:44;83.03;;;46.03;;
73136;SDS011;67767;45.636;11.756;2023-12-29T01:10:10;86.18;;;46.92;;
73136;SDS011;67767;45.636;11.756;2023-12-29T01:12:35;85.53;;;45.90;;
73136;SDS011;67767;45.636;11.756;2023-12-29T01:15:01;95.13;;;49.67;;
73136;SDS011;67767;45.636;11.756;2023-12-29T01:17:27;83.50;;;46.50;;
73136;SDS011;67767;45.636;11.756;2023-12-29T01:19:53;84.45;;;45.38;;
73136;SDS011;67767;45.636;11.756;2023-12-29T01:22:19;83.97;;;47.10;;
73136;SDS011;67767;45.636;11.756;2023-12-29T01:24:45;84.47;;;48.10;;
73136;SDS011;67767;45.636;11.756;2023-12-29T01:27:11;83.05;;;46.58;;
73136;SDS011;67767;45.636;11.756;2023-12-29T01:29:37;83.13;;;45.40;;
73136;SDS011;67767;45.636;11.756;2023-12-29T01:32:02;76.82;;;43.38;;
73136;SDS011;67767;45.636;11.756;2023-12-29T01:34:31;77.80;;;44.10;;
73136;SDS011;67767;45.636;11.756;2023-12-29T01:36:59;71.85;;;43.30;;
73136;SDS011;67767;45.636;11.756;2023-12-29T01:39:25;76.03;;;42.70;;
73136;SDS011;67767;45.636;11.756;2023-12-29T01:41:50;79.78;;;45.40;;
73136;SDS011;67767;45.636;11.756;2023-12-29T01:44:20;95.57;;;50.17;;
73136;SDS011;67767;45.636;11.756;2023-12-29T01:46:47;93.93;;;49.33;;
73136;SDS011;67767;45.636;11.756;2023-12-29T01:49:15;88.20;;;46.30;;
73136;SDS011;67767;45.636;11.756;2023-12-29T01:51:42;92.32;;;49.40;;
73136;SDS011;67767;45.636;11.756;2023-12-29T01:54:10;89.35;;;46.47;;
73136;SDS011;67767;45.636;11.756;2023-12-29T01:56:36;77.50;;;43.97;;
73136;SDS011;67767;45.636;11.756;2023-12-29T01:59:03;71.93;;;41.00;;
73136;SDS011;67767;45.636;11.756;2023-12-29T02:01:29;69.32;;;40.00;;
73136;SDS011;67767;45.636;11.756;2023-12-29T02:03:55;69.68;;;40.47;;
73136;SDS011;67767;45.636;11.756;2023-12-29T02:06:22;74.63;;;40.95;;
73136;SDS011;67767;45.636;11.756;2023-12-29T02:08:49;70.03;;;41.23;;
73136;SDS011;67767;45.636;11.756;2023-12-29T02:11:16;69.05;;;40.30;;
73136;SDS011;67767;45.636;11.756;2023-12-29T02:13:42;69.88;;;41.15;;
73136;SDS011;67767;45.636;11.756;2023-12-29T02:16:53;70.45;;;41.10;;
73136;SDS011;67767;45.636;11.756;2023-12-29T02:22:03;72.35;;;40.92;;
73136;SDS011;67767;45.636;11.756;2023-12-29T02:24:29;71.45;;;40.63;;
73136;SDS011;67767;45.636;11.756;2023-12-29T02:26:57;74.03;;;41.25;;
73136;SDS011;67767;45.636;11.756;2023-12-29T02:29:38;74.83;;;40.67;;
73136;SDS011;67767;45.636;11.756;2023-12-29T02:32:09;76.32;;;42.25;;
73136;SDS011;67767;45.636;11.756;2023-12-29T02:34:38;79.95;;;44.67;;
73136;SDS011;67767;45.636;11.756;2023-12-29T02:37:06;83.32;;;45.67;;
73136;SDS011;67767;45.636;11.756;2023-12-29T02:39:34;67.28;;;41.35;;
73136;SDS011;67767;45.636;11.756;2023-12-29T02:42:00;69.47;;;39.70;;
73136;SDS011;67767;45.636;11.756;2023-12-29T02:44:25;73.30;;;39.35;;
73136;SDS011;67767;45.636;11.756;2023-12-29T02:46:51;63.33;;;39.00;;
73136;SDS011;67767;45.636;11.756;2023-12-29T02:49:17;73.15;;;40.25;;
73136;SDS011;67767;45.636;11.756;2023-12-29T02:51:42;65.37;;;39.73;;
73136;SDS011;67767;45.636;11.756;2023-12-29T02:54:10;72.65;;;40.22;;
73136;SDS011;67767;45.636;11.756;2023-12-29T02:56:36;65.85;;;40.50;;
73136;SDS011;67767;45.636;11.756;2023-12-29T02:59:01;64.00;;;38.67;;
73136;SDS011;67767;45.636;11.756;2023-12-29T03:01:27;72.57;;;40.50;;
73136;SDS011;67767;45.636;11.756;2023-12-29T03:03:54;73.38;;;42.22;;
73136;SDS011;67767;45.636;11.756;2023-12-29T03:06:19;69.53;;;41.03;;
73136;SDS011;67767;45.636;11.756;2023-12-29T03:08:45;66.17;;;38.80;;
73136;SDS011;67767;45.636;11.756;2023-12-29T03:11:11;65.40;;;36.92;;
73136;SDS011;67767;45.636;11.756;2023-12-29T03:13:36;64.53;;;37.33;;
73136;SDS011;67767;45.636;11.756;2023-12-29T03:16:02;64.30;;;38.97;;
73136;SDS011;67767;45.636;11.756;2023-12-29T03:18:28;67.00;;;38.43;;
73136;SDS011;67767;45.636;11.756;2023-12-29T03:20:53;71.00;;;39.47;;
73136;SDS011;67767;45.636;11.756;2023-12-29T03:23:19;74.60;;;41.03;;
73136;SDS011;67767;45.636;11.756;2023-12-29T03:25:45;75.57;;;41.92;;
73136;SDS011;67767;45.636;11.756;2023-12-29T03:28:11;60.60;;;36.23;;
73136;SDS011;67767;45.636;11.756;2023-12-29T03:30:36;68.72;;;37.33;;
73136;SDS011;67767;45.636;11.756;2023-12-29T03:33:02;59.40;;;34.77;;
73136;SDS011;67767;45.636;11.756;2023-12-29T03:35:28;64.30;;;36.78;;
73136;SDS011;67767;45.636;11.756;2023-12-29T03:37:55;73.37;;;41.97;;
73136;SDS011;67767;45.636;11.756;2023-12-29T03:40:20;75.03;;;39.67;;
73136;SDS011;67767;45.636;11.756;2023-12-29T03:42:46;72.32;;;38.40;;
73136;SDS011;67767;45.636;11.756;2023-12-29T03:45:12;71.80;;;38.57;;
73136;SDS011;67767;45.636;11.756;2023-12-29T03:47:38;67.43;;;37.10;;
73136;SDS011;67767;45.636;11.756;2023-12-29T03:50:03;63.53;;;36.23;;
73136;SDS011;67767;45.636;11.756;2023-12-29T03:52:29;60.53;;;35.58;;
73136;SDS011;67767;45.636;11.756;2023-12-29T03:54:55;63.20;;;35.80;;
73136;SDS011;67767;45.636;11.756;2023-12-29T03:57:20;63.40;;;35.50;;
73136;SDS011;67767;45.636;11.756;2023-12-29T03:59:46;68.90;;;36.73;;
73136;SDS011;67767;45.636;11.756;2023-12-29T04:02:12;59.60;;;36.22;;
73136;SDS011;67767;45.636;11.756;2023-12-29T04:04:38;62.67;;;36.50;;
73136;SDS011;67767;45.636;11.756;2023-12-29T04:07:04;62.42;;;35.55;;
73136;SDS011;67767;45.636;11.756;2023-12-29T04:09:30;60.75;;;36.67;;
73136;SDS011;67767;45.636;11.756;2023-12-29T04:11:56;58.47;;;32.85;;
73136;SDS011;67767;45.636;11.756;2023-12-29T04:14:21;61.00;;;33.83;;
73136;SDS011;67767;45.636;11.756;2023-12-29T04:16:47;57.83;;;35.25;;
73136;SDS011;67767;45.636;11.756;2023-12-29T04:19:13;57.27;;;34.93;;
73136;SDS011;67767;45.636;11.756;2023-12-29T04:21:39;56.95;;;33.67;;
73136;SDS011;67767;45.636;11.756;2023-12-29T04:24:04;60.13;;;35.43;;
73136;SDS011;67767;45.636;11.756;2023-12-29T04:26:34;60.97;;;34.38;;
73136;SDS011;67767;45.636;11.756;2023-12-29T04:29:01;56.60;;;33.42;;
73136;SDS011;67767;45.636;11.756;2023-12-29T04:31:27;56.97;;;34.23;;
73136;SDS011;67767;45.636;11.756;2023-12-29T04:33:52;56.17;;;32.70;;
73136;SDS011;67767;45.636;11.756;2023-12-29T04:36:18;58.80;;;35.17;;
73136;SDS011;67767;45.636;11.756;2023-12-29T04:38:44;55.05;;;33.28;;
73136;SDS011;67767;45.636;11.756;2023-12-29T04:41:11;57.73;;;34.13;;
73136;SDS011;67767;45.636;11.756;2023-12-29T04:43:38;56.80;;;33.97;;
73136;SDS011;67767;45.636;11.756;2023-12-29T04:46:03;61.90;;;35.03;;
73136;SDS011;67767;45.636;11.756;2023-12-29T04:48:29;54.78;;;33.92;;
73136;SDS011;67767;45.636;11.756;2023-12-29T04:50:55;57.00;;;33.87;;
73136;SDS011;67767;45.636;11.756;2023-12-29T04:53:21;54.78;;;33.85;;
73136;SDS011;67767;45.636;11.756;2023-12-29T04:55:47;56.35;;;34.17;;
73136;SDS011;67767;45.636;11.756;2023-12-29T04:58:12;55.77;;;31.40;;
73136;SDS011;67767;45.636;11.756;2023-12-29T05:00:38;52.83;;;31.37;;
73136;SDS011;67767;45.636;11.756;2023-12-29T05:03:03;52.15;;;31.80;;
73136;SDS011;67767;45.636;11.756;2023-12-29T05:05:29;53.97;;;30.90;;
73136;SDS011;67767;45.636;11.756;2023-12-29T05:07:55;56.10;;;31.42;;
73136;SDS011;67767;45.636;11.756;2023-12-29T05:10:21;54.93;;;31.93;;
73136;SDS011;67767;45.636;11.756;2023-12-29T05:12:46;54.75;;;31.95;;
73136;SDS011;67767;45.636;11.756;2023-12-29T05:15:12;56.42;;;33.53;;
73136;SDS011;67767;45.636;11.756;2023-12-29T05:17:38;59.80;;;34.37;;
73136;SDS011;67767;45.636;11.756;2023-12-29T05:20:05;52.20;;;30.73;;
73136;SDS011;67767;45.636;11.756;2023-12-29T05:22:31;50.50;;;31.25;;
73136;SDS011;67767;45.636;11.756;2023-12-29T05:24:58;50.23;;;30.73;;
73136;SDS011;67767;45.636;11.756;2023-12-29T05:27:25;48.15;;;30.63;;
73136;SDS011;67767;45.636;11.756;2023-12-29T05:29:51;49.10;;;29.35;;
73136;SDS011;67767;45.636;11.756;2023-12-29T05:32:17;50.77;;;30.63;;
73136;SDS011;67767;45.636;11.756;2023-12-29T05:34:43;51.85;;;30.48;;
73136;SDS011;67767;45.636;11.756;2023-12-29T05:37:09;51.33;;;30.47;;
73136;SDS011;67767;45.636;11.756;2023-12-29T05:39:34;59.25;;;34.55;;
73136;SDS011;67767;45.636;11.756;2023-12-29T05:42:00;56.03;;;32.67;;
73136;SDS011;67767;45.636;11.756;2023-12-29T05:44:25;52.30;;;30.52;;
73136;SDS011;67767;45.636;11.756;2023-12-29T05:46:51;48.33;;;29.20;;
73136;SDS011;67767;45.636;11.756;2023-12-29T05:49:17;46.57;;;27.60;;
73136;SDS011;67767;45.636;11.756;2023-12-29T05:51:43;51.23;;;29.53;;
73136;SDS011;67767;45.636;11.756;2023-12-29T05:54:09;54.05;;;31.80;;
73136;SDS011;67767;45.636;11.756;2023-12-29T05:56:35;48.87;;;30.27;;
73136;SDS011;67767;45.636;11.756;2023-12-29T05:59:00;53.08;;;30.73;;
73136;SDS011;67767;45.636;11.756;2023-12-29T06:01:26;53.53;;;29.47;;
73136;SDS011;67767;45.636;11.756;2023-12-29T06:03:52;45.80;;;29.13;;
73136;SDS011;67767;45.636;11.756;2023-12-29T06:06:17;48.80;;;28.37;;
73136;SDS011;67767;45.636;11.756;2023-12-29T06:08:43;48.43;;;28.07;;
73136;SDS011;67767;45.636;11.756;2023-12-29T06:11:13;49.87;;;28.93;;
73136;SDS011;67767;45.636;11.756;2023-12-29T06:13:40;45.88;;;28.08;;
73136;SDS011;67767;45.636;11.756;2023-12-29T06:16:06;65.07;;;35.27;;
73136;SDS011;67767;45.636;11.756;2023-12-29T06:18:32;83.93;;;43.70;;
73136;SDS011;67767;45.636;11.756;2023-12-29T06:20:58;70.20;;;37.43;;
73136;SDS011;67767;45.636;11.756;2023-12-29T06:23:24;57.42;;;31.17;;
73136;SDS011;67767;45.636;11.756;2023-12-29T06:25:50;49.67;;;29.20;;
73136;SDS011;67767;45.636;11.756;2023-12-29T06:28:16;56.60;;;31.80;;
73136;SDS011;67767;45.636;11.756;2023-12-29T06:30:42;70.15;;;34.03;;
73136;SDS011;67767;45.636;11.756;2023-12-29T06:33:07;51.07;;;28.10;;
73136;SDS011;67767;45.636;11.756;2023-12-29T06:35:33;53.60;;;29.45;;
73136;SDS011;67767;45.636;11.756;2023-12-29T06:37:59;48.83;;;28.60;;
73136;SDS011;67767;45.636;11.756;2023-12-29T06:40:24;47.85;;;27.25;;
73136;SDS011;67767;45.636;11.756;2023-12-29T06:42:50;45.37;;;27.50;;
73136;SDS011;67767;45.636;11.756;2023-12-29T06:45:16;44.03;;;26.37;;
73136;SDS011;67767;45.636;11.756;2023-12-29T06:47:41;47.40;;;28.20;;
73136;SDS011;67767;45.636;11.756;2023-12-29T06:50:07;47.63;;;29.23;;
73136;SDS011;67767;45.636;11.756;2023-12-29T06:52:37;47.85;;;28.83;;
73136;SDS011;67767;45.636;11.756;2023-12-29T06:55:03;49.22;;;28.23;;
73136;SDS011;67767;45.636;11.756;2023-12-29T06:57:29;60.38;;;32.67;;
73136;SDS011;67767;45.636;11.756;2023-12-29T06:59:55;71.80;;;36.23;;
73136;SDS011;67767;45.636;11.756;2023-12-29T07:02:21;70.50;;;34.88;;
73136;SDS011;67767;45.636;11.756;2023-12-29T07:04:46;71.60;;;33.50;;
73136;SDS011;67767;45.636;11.756;2023-12-29T07:07:12;61.78;;;32.42;;
73136;SDS011;67767;45.636;11.756;2023-12-29T07:09:38;57.07;;;32.33;;
73136;SDS011;67767;45.636;11.756;2023-12-29T07:12:05;73.90;;;35.05;;
73136;SDS011;67767;45.636;11.756;2023-12-29T07:14:31;62.08;;;34.22;;
73136;SDS011;67767;45.636;11.756;2023-12-29T07:16:56;54.37;;;31.93;;
73136;SDS011;67767;45.636;11.756;2023-12-29T07:19:23;54.47;;;31.13;;
73136;SDS011;67767;45.636;11.756;2023-12-29T07:21:48;56.43;;;31.67;;
73136;SDS011;67767;45.636;11.756;2023-12-29T07:24:14;48.58;;;26.02;;
73136;SDS011;67767;45.636;11.756;2023-12-29T07:26:40;48.30;;;26.87;;
73136;SDS011;67767;45.636;11.756;2023-12-29T07:29:05;51.22;;;27.45;;
73136;SDS011;67767;45.636;11.756;2023-12-29T07:31:31;50.60;;;27.97;;
73136;SDS011;67767;45.636;11.756;2023-12-29T07:33:58;45.38;;;26.52;;
73136;SDS011;67767;45.636;11.756;2023-12-29T07:36:24;52.72;;;27.85;;
73136;SDS011;67767;45.636;11.756;2023-12-29T07:38:50;49.40;;;29.90;;
73136;SDS011;67767;45.636;11.756;2023-12-29T07:41:16;57.33;;;31.55;;
73136;SDS011;67767;45.636;11.756;2023-12-29T07:43:42;59.97;;;31.67;;
73136;SDS011;67767;45.636;11.756;2023-12-29T07:46:08;73.97;;;40.40;;
73136;SDS011;67767;45.636;11.756;2023-12-29T07:48:33;68.38;;;37.95;;
73136;SDS011;67767;45.636;11.756;2023-12-29T07:51:03;60.73;;;31.77;;
73136;SDS011;67767;45.636;11.756;2023-12-29T07:53:30;55.70;;;31.13;;
73136;SDS011;67767;45.636;11.756;2023-12-29T07:55:55;55.27;;;30.30;;
73136;SDS011;67767;45.636;11.756;2023-12-29T07:58:21;56.75;;;31.88;;
73136;SDS011;67767;45.636;11.756;2023-12-29T08:00:47;53.57;;;31.27;;
73136;SDS011;67767;45.636;11.756;2023-12-29T08:03:12;60.25;;;31.40;;
73136;SDS011;67767;45.636;11.756;2023-12-29T08:05:38;56.57;;;32.27;;
73136;SDS011;67767;45.636;11.756;2023-12-29T08:08:04;64.15;;;35.17;;
73136;SDS011;67767;45.636;11.756;2023-12-29T08:10:30;74.03;;;39.33;;
73136;SDS011;67767;45.636;11.756;2023-12-29T08:12:56;77.45;;;41.83;;
73136;SDS011;67767;45.636;11.756;2023-12-29T08:15:22;71.60;;;40.45;;
73136;SDS011;67767;45.636;11.756;2023-12-29T08:17:48;72.50;;;40.33;;
73136;SDS011;67767;45.636;11.756;2023-12-29T08:20:14;67.57;;;38.60;;
73136;SDS011;67767;45.636;11.756;2023-12-29T08:22:39;63.30;;;35.77;;
73136;SDS011;67767;45.636;11.756;2023-12-29T08:25:05;56.77;;;34.23;;
73136;SDS011;67767;45.636;11.756;2023-12-29T08:27:31;50.78;;;31.58;;
73136;SDS011;67767;45.636;11.756;2023-12-29T08:29:56;53.00;;;33.33;;
73136;SDS011;67767;45.636;11.756;2023-12-29T08:32:22;58.27;;;34.50;;
73136;SDS011;67767;45.636;11.756;2023-12-29T08:34:48;56.03;;;35.10;;
73136;SDS011;67767;45.636;11.756;2023-12-29T08:37:13;60.40;;;35.27;;
73136;SDS011;67767;45.636;11.756;2023-12-29T08:39:45;59.78;;;35.83;;
73136;SDS011;67767;45.636;11.756;2023-12-29T08:42:12;53.55;;;34.33;;
73136;SDS011;67767;45.636;11.756;2023-12-29T08:44:38;57.03;;;33.13;;
73136;SDS011;67767;45.636;11.756;2023-12-29T08:47:03;63.22;;;36.63;;
73136;SDS011;67767;45.636;11.756;2023-12-29T08:49:33;71.83;;;39.30;;
73136;SDS011;67767;45.636;11.756;2023-12-29T08:51:59;78.25;;;42.38;;
73136;SDS011;67767;45.636;11.756;2023-12-29T08:54:25;74.10;;;39.97;;
73136;SDS011;67767;45.636;11.756;2023-12-29T08:56:50;64.80;;;36.63;;
73136;SDS011;67767;45.636;11.756;2023-12-29T08:59:16;69.17;;;36.97;;
73136;SDS011;67767;45.636;11.756;2023-12-29T09:01:41;69.67;;;36.83;;
73136;SDS011;67767;45.636;11.756;2023-12-29T09:04:07;68.00;;;34.90;;
73136;SDS011;67767;45.636;11.756;2023-12-29T09:06:33;55.17;;;31.58;;
73136;SDS011;67767;45.636;11.756;2023-12-29T09:08:59;64.22;;;32.80;;
73136;SDS011;67767;45.636;11.756;2023-12-29T09:11:25;59.27;;;32.63;;
73136;SDS011;67767;45.636;11.756;2023-12-29T09:13:51;51.33;;;30.00;;
73136;SDS011;67767;45.636;11.756;2023-12-29T09:16:17;54.30;;;30.83;;
73136;SDS011;67767;45.636;11.756;2023-12-29T09:18:43;53.95;;;30.10;;
73136;SDS011;67767;45.636;11.756;2023-12-29T09:21:09;52.95;;;30.83;;
73136;SDS011;67767;45.636;11.756;2023-12-29T09:23:34;55.13;;;31.63;;
73136;SDS011;67767;45.636;11.756;2023-12-29T09:26:02;54.05;;;29.52;;
73136;SDS011;67767;45.636;11.756;2023-12-29T09:28:28;55.57;;;31.33;;
73136;SDS011;67767;45.636;11.756;2023-12-29T09:30:56;47.28;;;29.23;;
73136;SDS011;67767;45.636;11.756;2023-12-29T09:33:21;48.55;;;28.08;;
73136;SDS011;67767;45.636;11.756;2023-12-29T09:35:47;53.40;;;28.60;;
73136;SDS011;67767;45.636;11.756;2023-12-29T09:38:13;52.50;;;28.33;;
73136;SDS011;67767;45.636;11.756;2023-12-29T09:40:39;47.72;;;27.38;;
73136;SDS011;67767;45.636;11.756;2023-12-29T09:43:06;45.77;;;27.87;;
73136;SDS011;67767;45.636;11.756;2023-12-29T09:45:34;43.28;;;26.45;;
73136;SDS011;67767;45.636;11.756;2023-12-29T09:48:03;46.20;;;26.33;;
73136;SDS011;67767;45.636;11.756;2023-12-29T09:50:34;44.15;;;24.35;;
73136;SDS011;67767;45.636;11.756;2023-12-29T09:53:01;43.50;;;24.10;;
73136;SDS011;67767;45.636;11.756;2023-12-29T09:55:27;42.70;;;23.20;;
73136;SDS011;67767;45.636;11.756;2023-12-29T09:57:53;34.00;;;20.08;;
73136;SDS011;67767;45.636;11.756;2023-12-29T10:00:20;48.33;;;27.13;;
73136;SDS011;67767;45.636;11.756;2023-12-29T10:02:46;63.20;;;33.13;;
73136;SDS011;67767;45.636;11.756;2023-12-29T10:05:15;59.92;;;32.63;;
73136;SDS011;67767;45.636;11.756;2023-12-29T10:07:41;62.47;;;33.23;;
73136;SDS011;67767;45.636;11.756;2023-12-29T10:10:08;48.17;;;27.92;;
73136;SDS011;67767;45.636;11.756;2023-12-29T10:12:41;44.22;;;26.10;;
73136;SDS011;67767;45.636;11.756;2023-12-29T10:15:24;40.07;;;24.07;;
73136;SDS011;67767;45.636;11.756;2023-12-29T10:18:06;51.00;;;24.40;;
73136;SDS011;67767;45.636;11.756;2023-12-29T10:23:27;40.00;;;23.40;;
73136;SDS011;67767;45.636;11.756;2023-12-29T10:25:59;42.83;;;25.88;;
73136;SDS011;67767;45.636;11.756;2023-12-29T10:28:26;43.90;;;24.27;;
73136;SDS011;67767;45.636;11.756;2023-12-29T10:30:51;46.05;;;24.80;;
73136;SDS011;67767;45.636;11.756;2023-12-29T10:33:20;44.23;;;25.27;;
73136;SDS011;67767;45.636;11.756;2023-12-29T10:36:04;42.10;;;25.27;;
73136;SDS011;67767;45.636;11.756;2023-12-29T10:38:32;41.28;;;24.23;;
73136;SDS011;67767;45.636;11.756;2023-12-29T10:43:41;44.83;;;24.33;;
73136;SDS011;67767;45.636;11.756;2023-12-29T10:46:08;44.22;;;25.13;;
73136;SDS011;67767;45.636;11.756;2023-12-29T10:48:35;46.53;;;25.02;;
73136;SDS011;67767;45.636;11.756;2023-12-29T10:51:02;46.35;;;25.40;;
73136;SDS011;67767;45.636;11.756;2023-12-29T10:53:32;39.55;;;23.55;;
73136;SDS011;67767;45.636;11.756;2023-12-29T10:55:59;35.13;;;21.83;;
73136;SDS011;67767;45.636;11.756;2023-12-29T10:58:25;42.08;;;23.10;;
73136;SDS011;67767;45.636;11.756;2023-12-29T11:00:58;43.85;;;21.17;;
73136;SDS011;67767;45.636;11.756;2023-12-29T11:03:27;39.30;;;21.35;;
73136;SDS011;67767;45.636;11.756;2023-12-29T11:06:01;33.57;;;20.23;;
73136;SDS011;67767;45.636;11.756;2023-12-29T11:08:27;32.05;;;18.55;;
73136;SDS011;67767;45.636;11.756;2023-12-29T11:10:53;37.80;;;19.35;;
73136;SDS011;67767;45.636;11.756;2023-12-29T11:13:21;33.43;;;18.97;;
73136;SDS011;67767;45.636;11.756;2023-12-29T11:15:47;34.40;;;18.25;;
73136;SDS011;67767;45.636;11.756;2023-12-29T11:18:13;35.10;;;19.27;;
73136;SDS011;67767;45.636;11.756;2023-12-29T11:20:41;39.85;;;22.02;;
73136;SDS011;67767;45.636;11.756;2023-12-29T11:23:08;41.20;;;21.42;;
73136;SDS011;67767;45.636;11.756;2023-12-29T11:25:35;49.30;;;26.73;;
73136;SDS011;67767;45.636;11.756;2023-12-29T11:28:01;43.90;;;21.35;;
73136;SDS011;67767;45.636;11.756;2023-12-29T11:30:27;42.03;;;21.58;;
73136;SDS011;67767;45.636;11.756;2023-12-29T11:33:03;42.43;;;20.90;;
73136;SDS011;67767;45.636;11.756;2023-12-29T11:36:23;39.27;;;22.07;;
73136;SDS011;67767;45.636;11.756;2023-12-29T11:44:32;48.33;;;25.20;;
73136;SDS011;67767;45.636;11.756;2023-12-29T11:46:58;46.85;;;26.45;;
73136;SDS011;67767;45.636;11.756;2023-12-29T11:49:25;43.87;;;22.73;;
73136;SDS011;67767;45.636;11.756;2023-12-29T11:51:51;41.22;;;23.08;;
73136;SDS011;67767;45.636;11.756;2023-12-29T11:54:26;39.83;;;22.08;;
73136;SDS011;67767;45.636;11.756;2023-12-29T11:56:52;41.65;;;21.08;;
73136;SDS011;67767;45.636;11.756;2023-12-29T12:01:57;35.13;;;19.15;;
73136;SDS011;67767;45.636;11.756;2023-12-29T12:04:33;36.33;;;19.95;;
73136;SDS011;67767;45.636;11.756;2023-12-29T12:09:47;33.75;;;18.83;;
73136;SDS011;67767;45.636;11.756;2023-12-29T12:12:14;37.83;;;20.77;;
73136;SDS011;67767;45.636;11.756;2023-12-29T12:15:03;39.30;;;23.23;;
73136;SDS011;67767;45.636;11.756;2023-12-29T12:17:49;37.35;;;22.42;;
73136;SDS011;67767;45.636;11.756;2023-12-29T12:20:15;38.65;;;20.13;;
73136;SDS011;67767;45.636;11.756;2023-12-29T12:22:41;38.22;;;19.77;;
73136;SDS011;67767;45.636;11.756;2023-12-29T12:25:09;34.27;;;19.83;;
73136;SDS011;67767;45.636;11.756;2023-12-29T12:27:37;35.17;;;19.90;;
73136;SDS011;67767;45.636;11.756;2023-12-29T12:30:03;32.95;;;19.67;;
73136;SDS011;67767;45.636;11.756;2023-12-29T12:32:30;36.70;;;20.70;;
73136;SDS011;67767;45.636;11.756;2023-12-29T12:34:56;36.30;;;19.47;;
73136;SDS011;67767;45.636;11.756;2023-12-29T12:37:22;38.30;;;22.10;;
73136;SDS011;67767;45.636;11.756;2023-12-29T12:39:50;34.95;;;20.15;;
73136;SDS011;67767;45.636;11.756;2023-12-29T12:42:16;36.50;;;20.35;;
73136;SDS011;67767;45.636;11.756;2023-12-29T12:44:56;37.83;;;19.80;;
73136;SDS011;67767;45.636;11.756;2023-12-29T12:47:34;46.00;;;20.23;;
73136;SDS011;67767;45.636;11.756;2023-12-29T12:50:02;34.75;;;19.60;;
73136;SDS011;67767;45.636;11.756;2023-12-29T12:52:33;37.65;;;21.02;;
73136;SDS011;67767;45.636;11.756;2023-12-29T12:55:00;41.10;;;21.02;;
73136;SDS011;67767;45.636;11.756;2023-12-29T12:57:27;46.37;;;21.60;;
73136;SDS011;67767;45.636;11.756;2023-12-29T12:59:53;38.75;;;20.63;;
73136;SDS011;67767;45.636;11.756;2023-12-29T13:02:19;35.20;;;19.27;;
73136;SDS011;67767;45.636;11.756;2023-12-29T13:04:46;38.00;;;22.15;;
73136;SDS011;67767;45.636;11.756;2023-12-29T13:07:16;37.08;;;21.27;;
73136;SDS011;67767;45.636;11.756;2023-12-29T13:09:43;36.30;;;21.10;;
73136;SDS011;67767;45.636;11.756;2023-12-29T13:12:11;39.92;;;22.48;;
73136;SDS011;67767;45.636;11.756;2023-12-29T13:14:37;41.03;;;23.63;;
73136;SDS011;67767;45.636;11.756;2023-12-29T13:17:06;35.78;;;21.73;;
73136;SDS011;67767;45.636;11.756;2023-12-29T13:19:33;34.95;;;20.88;;
73136;SDS011;67767;45.636;11.756;2023-12-29T13:22:00;36.53;;;20.90;;
73136;SDS011;67767;45.636;11.756;2023-12-29T13:24:26;34.50;;;20.98;;
73136;SDS011;67767;45.636;11.756;2023-12-29T13:26:54;37.28;;;21.85;;
73136;SDS011;67767;45.636;11.756;2023-12-29T13:29:23;38.67;;;22.35;;
73136;SDS011;67767;45.636;11.756;2023-12-29T13:31:54;37.30;;;21.38;;
73136;SDS011;67767;45.636;11.756;2023-12-29T13:34:31;35.77;;;20.17;;
73136;SDS011;67767;45.636;11.756;2023-12-29T13:37:08;31.98;;;20.27;;
73136;SDS011;67767;45.636;11.756;2023-12-29T13:42:10;32.83;;;19.08;;
73136;SDS011;67767;45.636;11.756;2023-12-29T13:44:37;35.65;;;18.98;;
73136;SDS011;67767;45.636;11.756;2023-12-29T13:47:05;37.97;;;19.33;;
73136;SDS011;67767;45.636;11.756;2023-12-29T13:49:32;35.97;;;18.95;;
73136;SDS011;67767;45.636;11.756;2023-12-29T13:52:01;43.75;;;18.63;;
73136;SDS011;67767;45.636;11.756;2023-12-29T13:54:28;30.90;;;18.05;;
73136;SDS011;67767;45.636;11.756;2023-12-29T13:56:54;33.53;;;18.63;;
73136;SDS011;67767;45.636;11.756;2023-12-29T13:59:30;46.05;;;18.38;;
73136;SDS011;67767;45.636;11.756;2023-12-29T14:01:58;39.75;;;17.40;;
73136;SDS011;67767;45.636;11.756;2023-12-29T14:04:27;39.40;;;17.65;;
73136;SDS011;67767;45.636;11.756;2023-12-29T14:07:01;34.17;;;18.37;;
73136;SDS011;67767;45.636;11.756;2023-12-29T14:09:27;39.90;;;18.77;;
73136;SDS011;67767;45.636;11.756;2023-12-29T14:11:53;39.63;;;18.83;;
73136;SDS011;67767;45.636;11.756;2023-12-29T14:14:22;49.88;;;20.35;;
73136;SDS011;67767;45.636;11.756;2023-12-29T14:16:49;35.70;;;19.63;;
73136;SDS011;67767;45.636;11.756;2023-12-29T14:19:17;38.90;;;19.42;;
73136;SDS011;67767;45.636;11.756;2023-12-29T14:21:43;31.88;;;18.77;;
73136;SDS011;67767;45.636;11.756;2023-12-29T14:24:10;32.90;;;18.63;;
73136;SDS011;67767;45.636;11.756;2023-12-29T14:26:53;33.63;;;18.65;;
73136;SDS011;67767;45.636;11.756;2023-12-29T14:29:24;38.47;;;20.60;;
73136;SDS011;67767;45.636;11.756;2023-12-29T14:31:50;45.88;;;21.33;;